Time;durP1;ratioP1;P1;durP2;ratioP2;P2;SDS_P1;SDS_P2;PMS_P1;PMS_P2;Temp;Humidity;BMP_temperature;BMP_pressure;BME280_temperature;BME280_humidity;BME280_pressure;Samples;Min_cycle;Max_cycle;Signal;HPM_P1;HPM_P2
2021/12/29 00:00:25;;;;;;;8.70;7.40;;;6.30;99.90;;;;;;5093657;28;20464;-71
2021/12/29 00:02:52;;;;;;;7.95;6.25;;;6.30;99.90;;;;;;5092726;28;20040;-71
2021/12/29 00:05:18;;;;;;;8.07;6.90;;;6.30;99.90;;;;;;5093220;28;20136;-71
2021/12/29 00:07:43;;;;;;;22.67;11.05;;;6.20;99.90;;;;;;5092658;28;20044;-71
2021/12/29 00:10:11;;;;;;;15.00;9.18;;;6.20;99.90;;;;;;5092571;28;20044;-71
2021/12/29 00:12:41;;;;;;;16.30;9.73;;;6.20;99.90;;;;;;5092544;28;20040;-71
2021/12/29 00:15:09;;;;;;;15.75;10.88;;;6.20;99.90;;;;;;5093020;28;20051;-71
2021/12/29 00:17:39;;;;;;;17.52;11.95;;;6.20;99.90;;;;;;5093643;28;20040;-71
2021/12/29 00:20:05;;;;;;;22.50;12.95;;;6.20;99.90;;;;;;5094183;28;20123;-71
2021/12/29 00:22:31;;;;;;;25.80;14.85;;;6.20;99.90;;;;;;5093797;28;20091;-71
2021/12/29 00:24:56;;;;;;;26.75;15.68;;;6.30;99.90;;;;;;5092370;28;20433;-71
2021/12/29 00:27:22;;;;;;;28.42;14.35;;;6.30;99.90;;;;;;5093310;28;20075;-71
2021/12/29 00:29:47;;;;;;;31.67;16.70;;;6.30;99.90;;;;;;5093807;28;20044;-71
2021/12/29 00:32:13;;;;;;;21.73;12.98;;;6.30;99.90;;;;;;5092509;28;20044;-71
2021/12/29 00:34:38;;;;;;;31.05;15.10;;;6.40;99.90;;;;;;5092516;28;20067;-71
2021/12/29 00:37:04;;;;;;;32.35;16.42;;;6.30;99.90;;;;;;5092042;28;20048;-71
2021/12/29 00:39:30;;;;;;;27.80;14.68;;;6.30;99.90;;;;;;5093913;28;20127;-71
2021/12/29 00:41:55;;;;;;;27.80;14.68;;;6.30;99.90;;;;;;5092131;28;20076;-71
2021/12/29 00:44:21;;;;;;;26.65;14.85;;;6.40;99.90;;;;;;5093509;28;20040;-70
2021/12/29 00:46:52;;;;;;;32.08;16.10;;;6.40;99.90;;;;;;5092019;28;20036;-71
2021/12/29 00:49:19;;;;;;;25.25;14.20;;;6.30;99.90;;;;;;5093624;28;20046;-71
2021/12/29 00:51:45;;;;;;;28.52;14.23;;;6.40;99.90;;;;;;5093803;28;20036;-69
2021/12/29 00:54:10;;;;;;;26.98;15.18;;;6.40;99.90;;;;;;5099875;28;20532;-70
2021/12/29 00:56:38;;;;;;;32.20;15.50;;;6.40;99.90;;;;;;5100021;28;20039;-70
2021/12/29 00:59:04;;;;;;;23.13;12.93;;;6.40;99.90;;;;;;5100128;28;20463;-69
2021/12/29 01:01:30;;;;;;;22.00;13.35;;;6.30;99.90;;;;;;5098702;28;20044;-70
2021/12/29 01:03:56;;;;;;;23.10;13.15;;;6.40;99.90;;;;;;5100470;28;20042;-71
2021/12/29 01:06:21;;;;;;;25.60;12.73;;;6.40;99.90;;;;;;5099800;28;20093;-70
2021/12/29 01:08:47;;;;;;;28.60;14.43;;;6.40;99.90;;;;;;5099809;28;20036;-70
2021/12/29 01:11:13;;;;;;;27.55;13.52;;;6.40;99.90;;;;;;5100195;28;20040;-70
2021/12/29 01:13:45;;;;;;;28.08;14.05;;;6.40;99.90;;;;;;5100098;28;20044;-70
2021/12/29 01:16:36;;;;;;;27.80;15.07;;;6.50;99.90;;;;;;5098296;28;20115;-71
2021/12/29 01:19:08;;;;;;;35.90;15.90;;;6.50;99.90;;;;;;5098633;28;20052;-70
2021/12/29 01:21:34;;;;;;;33.15;15.85;;;6.50;99.90;;;;;;5099790;28;20373;-70
2021/12/29 01:24:02;;;;;;;35.25;15.10;;;6.50;99.90;;;;;;5099720;28;20558;-70
2021/12/29 01:26:28;;;;;;;30.77;14.63;;;6.50;99.90;;;;;;5099638;28;20039;-71
2021/12/29 01:28:53;;;;;;;42.70;16.95;;;6.50;99.90;;;;;;5098491;28;20103;-70
2021/12/29 01:31:19;;;;;;;35.22;15.52;;;6.50;99.90;;;;;;5099935;28;20046;-70
2021/12/29 01:33:45;;;;;;;39.90;14.95;;;6.50;99.90;;;;;;5099816;28;20364;-70
2021/12/29 01:36:10;;;;;;;49.47;19.05;;;6.50;99.90;;;;;;5098343;28;20044;-71
2021/12/29 01:38:36;;;;;;;43.92;17.38;;;6.50;99.90;;;;;;5099418;28;20050;-69
2021/12/29 01:41:02;;;;;;;50.92;17.40;;;6.50;99.90;;;;;;5099837;28;20031;-68
2021/12/29 01:43:28;;;;;;;40.75;17.13;;;6.50;99.90;;;;;;5099845;28;20036;-68
2021/12/29 01:45:54;;;;;;;40.72;16.33;;;6.50;99.90;;;;;;5099451;28;20497;-68
2021/12/29 01:48:20;;;;;;;41.65;17.40;;;6.50;99.90;;;;;;5099479;28;20036;-68
2021/12/29 01:50:50;;;;;;;46.20;17.35;;;6.50;99.90;;;;;;5099929;28;20040;-71
2021/12/29 01:53:23;;;;;;;49.20;18.20;;;6.50;99.90;;;;;;5098266;28;20043;-71
2021/12/29 01:55:50;;;;;;;52.83;17.98;;;6.50;99.90;;;;;;5099589;28;20032;-69
2021/12/29 01:58:16;;;;;;;47.33;18.80;;;6.50;99.90;;;;;;5099441;28;20036;-69
2021/12/29 02:00:43;;;;;;;44.75;17.45;;;6.60;99.90;;;;;;5098745;28;20511;-68
2021/12/29 02:03:08;;;;;;;48.97;19.33;;;6.50;99.90;;;;;;5099400;28;20621;-68
2021/12/29 02:05:35;;;;;;;61.30;21.02;;;6.60;99.90;;;;;;5094028;28;20044;-69
2021/12/29 02:08:01;;;;;;;64.55;19.83;;;6.60;99.90;;;;;;5096446;28;20040;-69
2021/12/29 02:10:31;;;;;;;73.15;22.63;;;6.50;99.90;;;;;;5096414;28;20446;-68
2021/12/29 02:12:59;;;;;;;63.72;21.50;;;6.60;99.90;;;;;;5096310;28;20040;-68
2021/12/29 02:15:24;;;;;;;64.47;22.23;;;6.50;99.90;;;;;;5094932;28;20040;-68
2021/12/29 02:17:50;;;;;;;71.20;22.95;;;6.60;99.90;;;;;;5096109;28;20036;-68
2021/12/29 02:20:20;;;;;;;60.63;21.90;;;6.60;99.90;;;;;;5096207;28;20080;-68
2021/12/29 02:22:51;;;;;;;77.32;24.80;;;6.60;99.90;;;;;;5095866;28;20051;-68
2021/12/29 02:27:51;;;;;;;67.85;22.15;;;6.60;99.90;;;;;;5095420;28;20037;-68
2021/12/29 02:30:24;;;;;;;78.32;23.48;;;6.60;99.90;;;;;;5095635;28;20518;-70
2021/12/29 02:32:54;;;;;;;58.47;19.80;;;6.60;99.90;;;;;;5094658;28;20106;-68
2021/12/29 02:35:20;;;;;;;56.78;18.85;;;6.60;99.90;;;;;;5096076;28;20089;-69
2021/12/29 02:37:46;;;;;;;68.35;22.45;;;6.60;99.90;;;;;;5095217;28;20403;-69
2021/12/29 02:40:12;;;;;;;59.67;19.05;;;6.60;99.90;;;;;;5096062;28;20035;-69
2021/12/29 02:42:40;;;;;;;60.78;21.48;;;6.60;99.90;;;;;;5094753;28;20499;-69
2021/12/29 02:45:17;;;;;;;62.72;21.63;;;6.60;99.90;;;;;;5095554;28;20044;-69
2021/12/29 02:47:43;;;;;;;66.97;20.35;;;6.70;99.90;;;;;;5093817;28;20050;-69
2021/12/29 02:50:14;;;;;;;56.58;19.98;;;6.70;99.90;;;;;;5094547;28;20376;-69
2021/12/29 02:52:40;;;;;;;74.13;23.15;;;6.70;99.90;;;;;;5095711;28;20044;-69
2021/12/29 02:55:05;;;;;;;62.72;19.50;;;6.70;99.90;;;;;;5095659;28;20071;-69
2021/12/29 02:57:31;;;;;;;58.58;19.77;;;6.70;99.90;;;;;;5094906;28;20403;-69
2021/12/29 02:59:57;;;;;;;57.90;19.27;;;6.70;99.90;;;;;;5095347;28;20414;-69
2021/12/29 03:02:22;;;;;;;65.63;19.85;;;6.80;99.90;;;;;;5094075;28;20375;-69
2021/12/29 03:04:48;;;;;;;56.17;18.00;;;6.80;99.90;;;;;;5093904;28;20119;-70
2021/12/29 03:07:13;;;;;;;56.72;17.45;;;6.80;99.90;;;;;;5094837;28;20071;-69
2021/12/29 03:09:39;;;;;;;51.65;18.33;;;6.80;99.90;;;;;;5093702;28;20047;-69
2021/12/29 03:12:05;;;;;;;43.42;15.95;;;6.70;99.90;;;;;;5093719;28;20044;-69
2021/12/29 03:14:31;;;;;;;48.95;15.68;;;6.80;99.90;;;;;;5093616;28;20040;-69
2021/12/29 03:16:57;;;;;;;42.28;15.30;;;6.80;99.90;;;;;;5093022;28;20044;-69
2021/12/29 03:19:23;;;;;;;41.40;15.35;;;6.80;99.90;;;;;;5095005;28;20047;-70
2021/12/29 03:21:50;;;;;;;45.13;15.38;;;6.80;99.90;;;;;;5095341;28;20047;-69
2021/12/29 03:24:18;;;;;;;47.28;14.98;;;6.90;99.90;;;;;;5095309;28;20399;-70
2021/12/29 03:26:44;;;;;;;50.58;16.15;;;6.90;99.90;;;;;;5093014;28;20052;-69
2021/12/29 03:29:09;;;;;;;45.97;15.93;;;7.00;99.90;;;;;;5094672;28;20506;-69
2021/12/29 03:31:38;;;;;;;50.58;17.42;;;7.00;99.90;;;;;;5093578;28;20484;-69
2021/12/29 03:34:05;;;;;;;54.38;17.60;;;7.10;99.90;;;;;;5093307;28;20401;-69
2021/12/29 03:36:31;;;;;;;55.97;18.08;;;7.10;99.90;;;;;;5094149;28;20044;-69
2021/12/29 03:38:57;;;;;;;60.97;18.52;;;7.10;99.90;;;;;;5094849;28;20093;-69
2021/12/29 03:41:24;;;;;;;58.17;18.90;;;7.20;99.90;;;;;;5094507;28;20032;-69
2021/12/29 03:43:50;;;;;;;54.22;16.63;;;7.20;99.90;;;;;;5094397;28;20393;-69
2021/12/29 03:46:16;;;;;;;56.20;18.42;;;7.20;99.90;;;;;;5092832;28;20109;-69
2021/12/29 03:48:45;;;;;;;65.82;20.08;;;7.20;99.90;;;;;;5094353;28;20452;-69
2021/12/29 03:51:11;;;;;;;48.90;17.13;;;7.20;99.90;;;;;;5094275;28;20040;-69
2021/12/29 03:53:38;;;;;;;59.28;19.67;;;7.20;99.90;;;;;;5094311;28;20040;-69
2021/12/29 03:56:05;;;;;;;67.22;21.13;;;7.30;99.90;;;;;;5092581;28;20115;-69
2021/12/29 03:58:31;;;;;;;64.18;21.05;;;7.30;99.90;;;;;;5094360;28;20055;-69
2021/12/29 04:01:06;;;;;;;65.95;20.48;;;7.20;99.90;;;;;;5094036;28;20061;-69
2021/12/29 04:03:31;;;;;;;65.43;20.88;;;7.30;99.90;;;;;;5092966;28;20043;-69
2021/12/29 04:05:57;;;;;;;68.22;20.17;;;7.20;99.90;;;;;;5093551;28;20028;-69
2021/12/29 04:08:23;;;;;;;69.75;22.38;;;7.20;99.90;;;;;;5094052;28;20075;-69
2021/12/29 04:10:49;;;;;;;68.22;23.20;;;7.30;99.90;;;;;;5094050;28;20384;-69
2021/12/29 04:13:14;;;;;;;77.88;23.50;;;7.30;99.90;;;;;;5092874;28;20048;-69
2021/12/29 04:15:41;;;;;;;77.00;23.42;;;7.20;99.90;;;;;;5093785;28;20510;-69
2021/12/29 04:18:15;;;;;;;81.97;24.73;;;7.30;99.90;;;;;;5092913;28;20054;-69
2021/12/29 04:20:54;;;;;;;65.13;22.58;;;7.30;99.90;;;;;;5094246;28;20040;-69
2021/12/29 04:23:20;;;;;;;74.57;24.67;;;7.30;99.90;;;;;;5093841;28;20035;-69
2021/12/29 04:25:50;;;;;;;78.75;25.83;;;7.20;99.90;;;;;;5093570;28;20044;-69
2021/12/29 04:28:20;;;;;;;87.47;24.52;;;7.20;99.90;;;;;;5092122;28;20032;-69
2021/12/29 04:30:47;;;;;;;75.10;24.83;;;7.30;99.90;;;;;;5093614;28;20544;-70
2021/12/29 04:33:14;;;;;;;80.65;28.65;;;7.30;99.90;;;;;;5092661;28;20071;-69
2021/12/29 04:35:40;;;;;;;83.70;28.80;;;7.30;99.90;;;;;;5093423;28;20042;-69
2021/12/29 04:38:06;;;;;;;78.20;26.75;;;7.30;99.90;;;;;;5092475;28;20040;-70
2021/12/29 04:40:32;;;;;;;75.35;27.98;;;7.30;99.90;;;;;;5093606;28;20088;-70
2021/12/29 04:42:58;;;;;;;84.43;26.92;;;7.30;99.90;;;;;;5093746;28;20046;-70
2021/12/29 04:45:23;;;;;;;77.13;25.15;;;7.30;99.90;;;;;;5093429;28;20038;-70
2021/12/29 04:47:50;;;;;;;72.50;26.13;;;7.40;99.90;;;;;;5093193;28;20480;-69
2021/12/29 04:50:36;;;;;;;75.63;26.40;;;7.30;99.90;;;;;;5093370;28;20044;-70
2021/12/29 04:53:05;;;;;;;67.32;25.98;;;7.30;99.90;;;;;;5093507;28;20043;-70
2021/12/29 04:55:31;;;;;;;67.35;25.13;;;7.40;99.90;;;;;;5093194;28;20040;-70
2021/12/29 04:57:59;;;;;;;63.88;23.38;;;7.30;99.90;;;;;;5093304;28;20396;-70
2021/12/29 05:00:28;;;;;;;66.78;25.73;;;7.40;99.90;;;;;;5092667;28;20152;-69
2021/12/29 05:02:55;;;;;;;68.35;26.70;;;7.40;99.90;;;;;;5092113;28;20047;-70
2021/12/29 05:05:40;;;;;;;73.22;27.95;;;7.40;99.90;;;;;;5092814;28;20043;-70
2021/12/29 05:08:26;;;;;;;81.72;29.15;;;7.40;99.90;;;;;;5093260;28;20079;-70
2021/12/29 05:11:03;;;;;;;70.93;28.23;;;7.40;99.90;;;;;;5093959;28;20036;-70
2021/12/29 05:13:32;;;;;;;89.95;31.40;;;7.40;99.90;;;;;;5093553;28;20480;-70
2021/12/29 05:15:59;;;;;;;96.15;30.77;;;7.40;99.90;;;;;;5093165;28;20028;-70
2021/12/29 05:18:27;;;;;;;75.63;29.15;;;7.50;99.90;;;;;;5093125;28;20040;-70
2021/12/29 05:20:53;;;;;;;78.95;28.02;;;7.50;99.90;;;;;;5092031;28;20505;-70
2021/12/29 05:23:19;;;;;;;94.82;30.08;;;7.50;99.90;;;;;;5091710;28;20052;-70
2021/12/29 05:25:46;;;;;;;70.75;26.40;;;7.50;99.90;;;;;;5092930;28;20036;-70
2021/12/29 05:28:12;;;;;;;75.65;28.05;;;7.50;99.90;;;;;;5092043;28;20161;-70
2021/12/29 05:30:38;;;;;;;91.00;29.73;;;7.50;99.90;;;;;;5093285;28;20123;-70
2021/12/29 05:33:04;;;;;;;86.85;29.67;;;7.50;99.90;;;;;;5093238;28;20111;-70
2021/12/29 05:35:30;;;;;;;73.88;26.85;;;7.50;99.90;;;;;;5092876;28;20460;-69
2021/12/29 05:37:56;;;;;;;81.22;28.70;;;7.50;99.90;;;;;;5091723;28;20063;-69
2021/12/29 05:40:23;;;;;;;72.95;26.63;;;7.50;99.90;;;;;;5093548;28;20480;-69
2021/12/29 05:42:49;;;;;;;73.22;25.55;;;7.50;99.90;;;;;;5095784;28;20044;-70
2021/12/29 05:45:16;;;;;;;87.80;29.05;;;7.50;99.90;;;;;;5096836;28;20415;-70
2021/12/29 05:47:42;;;;;;;81.25;28.42;;;7.50;99.90;;;;;;5096285;28;20051;-70
2021/12/29 05:50:11;;;;;;;76.38;27.20;;;7.50;99.90;;;;;;5095622;28;20048;-70
2021/12/29 05:52:37;;;;;;;84.72;28.70;;;7.50;99.90;;;;;;5096799;28;20063;-70
2021/12/29 05:55:04;;;;;;;86.68;29.55;;;7.40;99.90;;;;;;5095512;28;20071;-70
2021/12/29 05:57:30;;;;;;;76.20;27.85;;;7.40;99.90;;;;;;5096144;28;20039;-70
2021/12/29 05:59:56;;;;;;;87.13;29.75;;;7.40;99.90;;;;;;5095847;28;20044;-69
2021/12/29 06:02:22;;;;;;;76.55;30.23;;;7.40;99.90;;;;;;5096352;28;20059;-71
2021/12/29 06:04:47;;;;;;;73.32;28.70;;;7.50;99.90;;;;;;5095225;28;20055;-69
2021/12/29 06:07:13;;;;;;;65.30;25.95;;;7.40;99.90;;;;;;5095994;28;20165;-69
2021/12/29 06:09:39;;;;;;;77.97;29.08;;;7.50;99.90;;;;;;5096205;28;20040;-69
2021/12/29 06:12:05;;;;;;;81.53;29.42;;;7.50;99.90;;;;;;5096467;28;20047;-69
2021/12/29 06:14:31;;;;;;;75.13;28.30;;;7.50;99.90;;;;;;5096022;28;20093;-69
2021/12/29 06:16:57;;;;;;;72.85;27.80;;;7.50;99.90;;;;;;5094433;28;20036;-69
2021/12/29 06:19:22;;;;;;;78.70;28.20;;;7.50;99.90;;;;;;5095041;28;20052;-69
2021/12/29 06:21:48;;;;;;;76.40;28.45;;;7.50;99.90;;;;;;5096115;28;20044;-69
2021/12/29 06:24:14;;;;;;;89.00;30.15;;;7.50;99.90;;;;;;5096173;28;20047;-69
2021/12/29 06:26:39;;;;;;;70.55;27.60;;;7.50;99.90;;;;;;5095852;28;20054;-69
2021/12/29 06:29:05;;;;;;;73.78;27.92;;;7.50;99.90;;;;;;5095709;28;20407;-69
2021/12/29 06:31:32;;;;;;;79.90;29.70;;;7.50;99.90;;;;;;5095217;28;20043;-69
2021/12/29 06:33:59;;;;;;;74.20;28.17;;;7.50;99.90;;;;;;5094637;28;20096;-69
2021/12/29 06:36:24;;;;;;;90.32;29.83;;;7.60;99.90;;;;;;5094210;28;20512;-70
2021/12/29 06:38:50;;;;;;;87.47;32.30;;;7.60;99.90;;;;;;5096176;28;20233;-70
2021/12/29 06:41:17;;;;;;;73.90;29.23;;;7.60;99.90;;;;;;5096231;28;20131;-70
2021/12/29 06:43:43;;;;;;;74.43;29.98;;;7.60;99.90;;;;;;5096081;28;20086;-70
2021/12/29 06:46:08;;;;;;;76.40;30.05;;;7.60;99.90;;;;;;5077362;28;20044;-70
2021/12/29 06:48:34;;;;;;;77.68;28.48;;;7.60;99.90;;;;;;5095342;28;20040;-70
2021/12/29 06:51:00;;;;;;;72.20;28.25;;;7.60;99.90;;;;;;5095166;28;20044;-69
2021/12/29 06:53:29;;;;;;;75.43;27.92;;;7.60;99.90;;;;;;5094559;28;20121;-70
2021/12/29 06:55:55;;;;;;;80.22;28.35;;;7.70;99.90;;;;;;5095102;28;20074;-70
2021/12/29 06:58:21;;;;;;;69.88;27.42;;;7.60;99.90;;;;;;5095784;28;20434;-69
2021/12/29 07:00:46;;;;;;;76.60;29.38;;;7.60;99.90;;;;;;5095336;28;20028;-69
2021/12/29 07:03:12;;;;;;;72.63;27.67;;;7.60;99.90;;;;;;5095071;28;20139;-70
2021/12/29 07:05:38;;;;;;;63.58;26.73;;;7.60;99.90;;;;;;5095063;28;20036;-70
2021/12/29 07:08:04;;;;;;;66.03;25.17;;;7.60;99.90;;;;;;5077073;28;20154;-69
2021/12/29 07:10:29;;;;;;;68.28;26.80;;;7.60;99.90;;;;;;5095528;28;20043;-69
2021/12/29 07:12:55;;;;;;;76.47;28.33;;;7.60;99.90;;;;;;5095090;28;20040;-69
2021/12/29 07:15:20;;;;;;;65.47;25.95;;;7.60;99.90;;;;;;5094777;28;20035;-70
2021/12/29 07:17:46;;;;;;;80.10;28.20;;;7.60;99.90;;;;;;5094643;28;20086;-70
2021/12/29 07:20:12;;;;;;;66.00;25.63;;;7.50;99.90;;;;;;5093823;28;20062;-70
2021/12/29 07:22:37;;;;;;;81.18;28.65;;;7.50;99.90;;;;;;5094983;28;20464;-69
2021/12/29 07:25:04;;;;;;;81.00;30.00;;;7.60;99.90;;;;;;5093514;28;20439;-70
2021/12/29 07:27:30;;;;;;;75.22;28.73;;;7.60;99.90;;;;;;5093232;28;20080;-70
2021/12/29 07:29:56;;;;;;;85.20;28.13;;;7.60;99.90;;;;;;5095459;28;20044;-70
2021/12/29 07:32:22;;;;;;;76.35;28.67;;;7.60;99.90;;;;;;5077060;28;20044;-69
2021/12/29 07:34:47;;;;;;;70.35;26.63;;;7.60;99.90;;;;;;5094239;28;20086;-70
2021/12/29 07:37:14;;;;;;;83.57;30.80;;;7.60;99.90;;;;;;5092986;28;20450;-70
2021/12/29 07:39:40;;;;;;;75.93;28.60;;;7.60;99.90;;;;;;5076357;28;20079;-71
2021/12/29 07:42:07;;;;;;;87.53;29.05;;;7.60;99.90;;;;;;5094478;28;20089;-70
2021/12/29 07:44:33;;;;;;;76.68;27.67;;;7.60;99.90;;;;;;5093405;28;20044;-69
2021/12/29 07:46:59;;;;;;;81.65;29.13;;;7.60;99.90;;;;;;5094171;28;20047;-70
2021/12/29 07:49:27;;;;;;;56.78;22.67;;;7.50;99.90;;;;;;5094216;28;20460;-70
2021/12/29 07:51:53;;;;;;;85.63;28.58;;;7.50;99.90;;;;;;5094878;28;20380;-71
2021/12/29 07:54:20;;;;;;;69.90;24.83;;;7.50;99.90;;;;;;5094547;28;20068;-70
2021/12/29 07:56:45;;;;;;;73.82;25.63;;;7.50;99.90;;;;;;5093900;28;20036;-71
2021/12/29 07:59:12;;;;;;;73.50;25.80;;;7.50;99.90;;;;;;5094969;28;20166;-70
2021/12/29 08:01:40;;;;;;;75.13;28.30;;;7.50;99.90;;;;;;5093170;28;20065;-70
2021/12/29 08:04:06;;;;;;;65.72;23.40;;;7.50;99.90;;;;;;5092531;28;20406;-70
2021/12/29 08:06:31;;;;;;;73.47;26.25;;;7.50;99.90;;;;;;5092626;28;20118;-70
2021/12/29 08:08:57;;;;;;;58.83;24.02;;;7.50;99.90;;;;;;5093829;28;20040;-70
2021/12/29 08:11:23;;;;;;;62.97;23.35;;;7.40;99.90;;;;;;5093304;28;20032;-70
2021/12/29 08:13:49;;;;;;;71.70;26.67;;;7.50;99.90;;;;;;5093879;28;20032;-70
2021/12/29 08:16:15;;;;;;;62.00;23.15;;;7.40;99.90;;;;;;5093549;28;20093;-70
2021/12/29 08:18:41;;;;;;;58.58;22.55;;;7.40;99.90;;;;;;5094024;28;20395;-71
2021/12/29 08:21:07;;;;;;;65.72;24.00;;;7.40;99.90;;;;;;5093757;28;20442;-70
2021/12/29 08:23:32;;;;;;;70.40;24.90;;;7.40;99.90;;;;;;5092524;28;20073;-70
2021/12/29 08:25:59;;;;;;;65.25;26.10;;;7.40;99.90;;;;;;5075532;28;20040;-71
2021/12/29 08:28:25;;;;;;;57.92;22.58;;;7.40;99.90;;;;;;5093448;28;20043;-71
2021/12/29 08:30:51;;;;;;;71.55;22.77;;;7.40;99.90;;;;;;5093895;28;20035;-71
2021/12/29 08:33:17;;;;;;;50.50;20.98;;;7.40;99.90;;;;;;5093667;28;20036;-70
2021/12/29 08:35:43;;;;;;;47.67;20.05;;;7.40;99.90;;;;;;5093444;28;20067;-71
2021/12/29 08:38:08;;;;;;;43.80;17.48;;;7.40;99.90;;;;;;5093605;28;20108;-71
2021/12/29 08:40:34;;;;;;;71.88;23.92;;;7.40;99.90;;;;;;5093852;28;20028;-71
2021/12/29 08:43:02;;;;;;;61.78;23.77;;;7.40;99.90;;;;;;5093637;28;20036;-70
2021/12/29 08:45:28;;;;;;;43.53;18.95;;;7.50;99.90;;;;;;5093942;28;20067;-71
2021/12/29 08:47:57;;;;;;;36.70;17.75;;;7.50;99.90;;;;;;5091808;28;20044;-69
2021/12/29 08:50:32;;;;;;;59.08;22.00;;;7.50;99.90;;;;;;5093749;28;20044;-70
2021/12/29 08:53:02;;;;;;;47.25;17.05;;;7.50;99.90;;;;;;5104967;28;20067;-70
2021/12/29 08:55:28;;;;;;;49.15;19.73;;;7.50;99.90;;;;;;5101915;28;20118;-70
2021/12/29 08:57:54;;;;;;;45.40;18.73;;;7.50;99.90;;;;;;5102857;28;20035;-69
2021/12/29 09:00:20;;;;;;;37.85;17.90;;;7.50;99.90;;;;;;5113765;28;20043;-69
2021/12/29 09:02:46;;;;;;;54.83;20.60;;;7.50;99.90;;;;;;5112700;28;20043;-69
2021/12/29 09:05:12;;;;;;;46.22;18.75;;;7.50;99.90;;;;;;5113336;28;20096;-69
2021/12/29 09:07:39;;;;;;;55.30;19.95;;;7.50;99.90;;;;;;5113745;28;20037;-69
2021/12/29 09:10:06;;;;;;;42.63;18.05;;;7.60;99.90;;;;;;5113681;28;20047;-69
2021/12/29 09:12:32;;;;;;;55.13;18.63;;;7.50;99.90;;;;;;5112973;28;20047;-70
2021/12/29 09:14:58;;;;;;;55.58;20.80;;;7.50;99.90;;;;;;5116931;28;20039;-68
2021/12/29 09:17:25;;;;;;;42.17;17.75;;;7.50;99.90;;;;;;5117517;28;20042;-69
2021/12/29 09:19:50;;;;;;;45.92;18.70;;;7.50;99.90;;;;;;5118293;28;20035;-69
2021/12/29 09:22:17;;;;;;;49.67;18.60;;;7.50;99.90;;;;;;5118102;28;20418;-69
2021/12/29 09:24:43;;;;;;;45.45;18.95;;;7.50;99.90;;;;;;5117383;28;20043;-69
2021/12/29 09:27:10;;;;;;;59.22;20.70;;;7.60;99.90;;;;;;5112667;28;20047;-69
2021/12/29 09:29:36;;;;;;;62.60;19.55;;;7.60;99.90;;;;;;5098921;28;20123;-69
2021/12/29 09:32:03;;;;;;;54.20;19.05;;;7.60;99.90;;;;;;5104722;28;20111;-69
2021/12/29 09:34:29;;;;;;;57.03;18.90;;;7.60;99.90;;;;;;5117393;28;20036;-69
2021/12/29 09:36:55;;;;;;;66.95;21.52;;;7.70;99.90;;;;;;5115513;28;20536;-69
2021/12/29 09:39:21;;;;;;;70.85;21.77;;;7.60;99.90;;;;;;5117509;28;20097;-69
2021/12/29 09:41:47;;;;;;;67.88;20.33;;;7.70;99.90;;;;;;5117506;28;20531;-69
2021/12/29 09:44:13;;;;;;;58.88;21.25;;;7.70;99.90;;;;;;5116311;28;20089;-69
2021/12/29 09:46:38;;;;;;;66.63;20.60;;;7.70;99.90;;;;;;5117128;27;20047;-70
2021/12/29 09:49:05;;;;;;;58.85;19.98;;;7.70;99.90;;;;;;5117308;28;20071;-69
2021/12/29 09:51:30;;;;;;;54.47;19.65;;;7.70;99.90;;;;;;5117057;28;20086;-70
2021/12/29 09:53:56;;;;;;;59.72;19.85;;;7.70;99.90;;;;;;5116091;28;20464;-69
2021/12/29 09:56:22;;;;;;;57.85;19.08;;;7.70;99.90;;;;;;5114021;28;20028;-69
2021/12/29 09:58:49;;;;;;;44.38;17.23;;;7.70;99.90;;;;;;5115694;28;20475;-69
2021/12/29 10:01:15;;;;;;;54.50;19.02;;;7.80;99.90;;;;;;5116993;28;20395;-69
2021/12/29 10:03:42;;;;;;;53.67;19.17;;;7.80;99.90;;;;;;5116852;28;20040;-70
2021/12/29 10:06:09;;;;;;;49.80;17.35;;;7.80;99.90;;;;;;5116673;28;20110;-69
2021/12/29 10:08:41;;;;;;;52.00;16.25;;;7.90;99.90;;;;;;5114797;28;20044;-70
2021/12/29 10:11:18;;;;;;;48.95;16.73;;;7.80;99.90;;;;;;5103290;28;20565;-70
2021/12/29 10:13:47;;;;;;;53.10;16.35;;;7.90;99.90;;;;;;5096227;28;20081;-70
2021/12/29 10:16:21;;;;;;;50.35;16.77;;;7.90;99.90;;;;;;5096219;28;20480;-70
2021/12/29 10:18:53;;;;;;;46.50;17.15;;;7.90;99.90;;;;;;5095793;28;20032;-70
2021/12/29 10:21:22;;;;;;;45.83;16.77;;;7.90;99.90;;;;;;5096744;28;20075;-70
2021/12/29 10:23:50;;;;;;;38.58;15.50;;;8.00;99.90;;;;;;5096470;28;20043;-70
2021/12/29 10:26:22;;;;;;;49.60;17.40;;;8.00;99.90;;;;;;5094886;28;20130;-70
2021/12/29 10:29:00;;;;;;;55.05;17.02;;;8.00;99.90;;;;;;5094570;28;20043;-70
2021/12/29 10:31:45;;;;;;;38.92;15.68;;;8.00;99.90;;;;;;5103260;28;20109;-70
2021/12/29 10:34:14;;;;;;;45.50;16.90;;;8.10;99.90;;;;;;5105810;28;20032;-70
2021/12/29 10:36:45;;;;;;;41.80;16.27;;;8.10;99.90;;;;;;5104277;28;20036;-69
2021/12/29 10:39:15;;;;;;;45.40;16.77;;;8.10;99.90;;;;;;5104033;28;20044;-70
2021/12/29 10:41:52;;;;;;;40.63;16.58;;;8.10;99.90;;;;;;5106783;28;20048;-70
2021/12/29 10:44:31;;;;;;;37.22;14.68;;;8.20;99.90;;;;;;5104863;28;20036;-70
2021/12/29 10:46:58;;;;;;;41.58;15.82;;;8.20;99.90;;;;;;5111346;28;20050;-70
2021/12/29 10:49:27;;;;;;;44.75;16.05;;;8.20;99.90;;;;;;5114611;28;20036;-70
2021/12/29 10:51:58;;;;;;;39.15;16.05;;;8.20;99.90;;;;;;5108979;28;20032;-70
2021/12/29 10:54:27;;;;;;;45.42;16.55;;;8.30;99.90;;;;;;5104661;28;20365;-70
2021/12/29 10:57:06;;;;;;;31.33;13.82;;;8.30;99.90;;;;;;5108325;28;20036;-70
2021/12/29 10:59:41;;;;;;;30.58;13.60;;;8.30;99.90;;;;;;5115937;28;20118;-69
2021/12/29 11:02:08;;;;;;;33.45;14.40;;;8.30;99.90;;;;;;5115883;28;20067;-70
2021/12/29 11:04:34;;;;;;;36.70;13.82;;;8.30;99.90;;;;;;5115735;28;20520;-70
2021/12/29 11:07:01;;;;;;;33.78;14.60;;;8.30;99.90;;;;;;5114382;28;20048;-70
2021/12/29 11:09:35;;;;;;;41.03;18.85;;;8.30;99.90;;;;;;5115731;28;20089;-70
2021/12/29 11:12:10;;;;;;;30.80;15.13;;;8.30;99.90;;;;;;5114506;28;20047;-70
2021/12/29 11:14:42;;;;;;;29.73;13.25;;;8.30;99.90;;;;;;5114724;28;20075;-70
2021/12/29 11:17:23;;;;;;;29.88;12.57;;;8.20;99.90;;;;;;5115104;28;20048;-70
2021/12/29 11:19:56;;;;;;;21.63;12.05;;;8.20;99.90;;;;;;5115519;27;20050;-70
2021/12/29 11:22:27;;;;;;;32.38;13.63;;;8.30;99.90;;;;;;5115857;28;20042;-69
2021/12/29 11:24:59;;;;;;;30.65;13.75;;;8.20;99.90;;;;;;5115552;28;20088;-69
2021/12/29 11:27:27;;;;;;;26.33;12.35;;;8.20;99.90;;;;;;5113851;28;20054;-70
2021/12/29 11:29:58;;;;;;;31.45;13.35;;;8.20;99.90;;;;;;5115133;28;20075;-70
2021/12/29 11:32:27;;;;;;;25.17;12.98;;;8.20;99.90;;;;;;5115436;28;20036;-70
2021/12/29 11:35:21;;;;;;;23.45;10.93;;;8.20;99.90;;;;;;5115299;28;20032;-70
2021/12/29 11:37:46;;;;;;;20.52;10.35;;;8.20;99.90;;;;;;5114184;28;20130;-71
2021/12/29 11:40:16;;;;;;;21.67;10.93;;;8.20;99.90;;;;;;5115117;28;20591;-71
2021/12/29 11:42:41;;;;;;;20.63;10.50;;;8.20;99.90;;;;;;5114216;28;20117;-71
2021/12/29 11:45:09;;;;;;;18.65;9.88;;;8.20;99.90;;;;;;5115313;28;20057;-71
2021/12/29 11:47:35;;;;;;;18.70;10.43;;;8.20;99.90;;;;;;5114810;28;20092;-71
2021/12/29 11:50:03;;;;;;;22.80;10.75;;;8.20;99.90;;;;;;5114098;28;20123;-71
2021/12/29 11:53:00;;;;;;;17.85;9.45;;;8.20;99.90;;;;;;5096655;28;20096;-70
2021/12/29 11:55:31;;;;;;;17.25;9.75;;;8.20;99.90;;;;;;5114984;28;20039;-71
2021/12/29 11:58:13;;;;;;;23.77;10.63;;;8.20;99.90;;;;;;5115123;28;20035;-71
2021/12/29 12:00:41;;;;;;;26.17;12.00;;;8.20;99.90;;;;;;5114815;28;20039;-69
2021/12/29 12:03:14;;;;;;;23.80;11.07;;;8.20;99.90;;;;;;5114551;28;20039;-70
2021/12/29 12:05:43;;;;;;;20.95;10.70;;;8.20;99.90;;;;;;5115033;28;20116;-69
2021/12/29 12:08:21;;;;;;;19.70;10.15;;;8.20;99.90;;;;;;5114416;28;20125;-70
2021/12/29 12:10:47;;;;;;;18.30;9.85;;;8.40;99.90;;;;;;5113625;28;20481;-70
2021/12/29 12:13:43;;;;;;;22.63;9.27;;;8.50;99.90;;;;;;5114830;28;20123;-70
2021/12/29 12:16:11;;;;;;;25.30;9.85;;;8.60;99.90;;;;;;5106553;27;20040;-71
2021/12/29 12:18:52;;;;;;;14.40;8.93;;;8.60;99.90;;;;;;5104215;28;20055;-70
2021/12/29 12:21:28;;;;;;;17.52;9.75;;;8.70;99.90;;;;;;5104613;28;20043;-69
2021/12/29 12:24:07;;;;;;;27.17;10.45;;;8.80;99.90;;;;;;5107318;28;20345;-69
2021/12/29 12:26:33;;;;;;;19.48;8.98;;;8.80;99.90;;;;;;5114036;28;20067;-70
2021/12/29 12:28:58;;;;;;;24.67;11.05;;;8.90;99.90;;;;;;5112965;28;20552;-70
2021/12/29 12:31:26;;;;;;;20.88;11.80;;;9.00;99.90;;;;;;5114315;28;20071;-70
2021/12/29 12:33:54;;;;;;;21.17;9.68;;;9.00;99.90;;;;;;5114593;28;20047;-69
2021/12/29 12:36:30;;;;;;;19.35;9.40;;;9.10;99.90;;;;;;5113571;28;20127;-69
2021/12/29 12:39:09;;;;;;;13.38;8.75;;;9.10;99.90;;;;;;5113803;28;20058;-70
2021/12/29 12:41:40;;;;;;;23.55;8.68;;;9.10;99.90;;;;;;5106229;28;20388;-70
2021/12/29 12:44:06;;;;;;;20.83;9.45;;;9.10;99.90;;;;;;5093915;28;20039;-71